Time;durP1;ratioP1;P1;durP2;ratioP2;P2;SDS_P1;SDS_P2;PMS_P1;PMS_P2;Temp;Humidity;BMP_temperature;BMP_pressure;BME280_temperature;BME280_humidity;BME280_pressure;Samples;Min_cycle;Max_cycle;Signal;HPM_P1;HPM_P2
2022/05/05 00:00:49;;;;;;;14.98;10.13;;;;;;;-143.53;100.00;58366.03;2083634;28;20202;-61
2022/05/05 00:01:51;;;;;;;15.45;9.13;;;;;;;-143.53;100.00;58366.03;2084146;28;20197;-61
2022/05/05 00:02:53;;;;;;;13.50;8.95;;;;;;;-143.53;100.00;58366.03;2084781;28;20805;-61
2022/05/05 00:03:55;;;;;;;10.65;9.35;;;;;;;-143.53;100.00;58366.03;2085686;28;20196;-61
2022/05/05 00:04:56;;;;;;;13.35;8.70;;;;;;;-143.53;100.00;58366.03;2082773;28;20201;-61
2022/05/05 00:05:58;;;;;;;12.45;9.30;;;;;;;-143.53;100.00;58366.03;2082674;28;20216;-61
2022/05/05 00:07:03;;;;;;;12.75;9.52;;;;;;;-143.53;100.00;58366.03;2085358;28;20806;-61
2022/05/05 00:08:05;;;;;;;12.50;9.50;;;;;;;-143.53;100.00;58366.03;2080532;28;20204;-61
2022/05/05 00:09:06;;;;;;;12.93;9.25;;;;;;;-143.53;100.00;58366.03;2084014;28;20198;-61
2022/05/05 00:14:24;;;;;;;12.18;8.20;;;;;;;-143.53;100.00;58366.03;2086401;28;20204;-61
2022/05/05 00:15:26;;;;;;;14.95;8.65;;;;;;;-143.53;100.00;58366.03;2080671;28;20200;-61
2022/05/05 00:16:27;;;;;;;14.52;8.32;;;;;;;-143.53;100.00;58366.03;2082786;28;20609;-61
2022/05/05 00:17:32;;;;;;;10.18;8.27;;;;;;;-143.53;100.00;58366.03;2084136;28;20210;-61
2022/05/05 00:18:34;;;;;;;11.10;8.05;;;;;;;-143.53;100.00;58366.03;2084786;28;20197;-61
2022/05/05 00:19:38;;;;;;;10.50;8.23;;;;;;;-143.53;100.00;58366.03;2083950;28;20202;-61
2022/05/05 00:20:39;;;;;;;11.65;8.68;;;;;;;-143.53;100.00;58366.03;2082372;28;20833;-61
2022/05/05 00:21:41;;;;;;;14.13;9.05;;;;;;;-143.53;100.00;58366.03;2083800;28;20556;-62
2022/05/05 00:22:42;;;;;;;12.70;9.05;;;;;;;-143.53;100.00;58366.03;2084524;28;20209;-61
2022/05/05 00:23:44;;;;;;;11.98;7.97;;;;;;;-143.53;100.00;58366.03;2083865;28;20197;-62
2022/05/05 00:24:45;;;;;;;14.80;9.05;;;;;;;-143.53;100.00;58366.03;2085693;28;20310;-61
2022/05/05 00:25:47;;;;;;;9.98;7.38;;;;;;;-143.53;100.00;58366.03;2083824;28;20209;-61
2022/05/05 00:26:48;;;;;;;14.27;8.13;;;;;;;-143.53;100.00;58366.03;2085935;28;20200;-62
2022/05/05 00:27:49;;;;;;;10.40;8.43;;;;;;;-143.53;100.00;58366.03;2086381;28;20555;-61
2022/05/05 00:28:51;;;;;;;10.88;8.77;;;;;;;-143.53;100.00;58366.03;2084690;28;20198;-62
2022/05/05 00:29:54;;;;;;;11.38;7.95;;;;;;;-143.53;100.00;58366.03;2083697;28;20204;-61
2022/05/05 00:30:56;;;;;;;10.32;7.88;;;;;;;-143.53;100.00;58366.03;2083803;28;20263;-61
2022/05/05 00:31:57;;;;;;;13.70;8.07;;;;;;;-143.53;100.00;58366.03;2085577;28;20197;-61
2022/05/05 00:32:59;;;;;;;10.05;7.72;;;;;;;-143.53;100.00;58366.03;2085095;28;20235;-62
2022/05/05 00:34:00;;;;;;;10.07;7.82;;;;;;;-143.53;100.00;58366.03;2081932;28;20224;-61
2022/05/05 00:35:02;;;;;;;8.38;7.35;;;;;;;-143.53;100.00;58366.03;2083662;28;20199;-61
2022/05/05 00:36:04;;;;;;;9.43;7.78;;;;;;;-143.53;100.00;58366.03;2084273;28;20212;-61
2022/05/05 00:37:05;;;;;;;10.10;7.85;;;;;;;-143.53;100.00;58366.03;2082980;28;20259;-61
2022/05/05 00:38:07;;;;;;;12.95;8.43;;;;;;;-143.53;100.00;58366.03;2082285;28;20200;-61
2022/05/05 00:39:11;;;;;;;13.25;8.18;;;;;;;-143.53;100.00;58366.03;2082397;28;20208;-62
2022/05/05 00:40:12;;;;;;;12.88;8.80;;;;;;;-143.53;100.00;58366.03;2082455;28;20207;-61
2022/05/05 00:41:14;;;;;;;10.90;9.00;;;;;;;-143.53;100.00;58366.03;2081198;28;20225;-61
2022/05/05 00:42:16;;;;;;;10.82;8.82;;;;;;;-143.53;100.00;58366.03;2083330;28;20286;-61
2022/05/05 00:43:17;;;;;;;13.20;8.73;;;;;;;-143.53;100.00;58366.03;2082704;28;20201;-61
2022/05/05 00:44:19;;;;;;;12.23;8.45;;;;;;;-143.53;100.00;58366.03;2084531;28;20524;-61
2022/05/05 00:45:21;;;;;;;10.50;8.82;;;;;;;-143.53;100.00;58366.03;2083909;28;20212;-61
2022/05/05 00:46:22;;;;;;;13.73;8.20;;;;;;;-143.53;100.00;58366.03;2084050;28;20216;-61
2022/05/05 00:47:24;;;;;;;13.73;8.40;;;;;;;-143.53;100.00;58366.03;2085563;28;20662;-61
2022/05/05 00:48:26;;;;;;;13.65;8.35;;;;;;;-143.53;100.00;58366.03;2083053;28;20193;-61
2022/05/05 00:49:29;;;;;;;11.48;7.93;;;;;;;-143.53;100.00;58366.03;2085911;28;20456;-61
2022/05/05 00:50:32;;;;;;;9.00;7.78;;;;;;;-143.53;100.00;58366.03;2083761;28;20201;-62
2022/05/05 00:51:34;;;;;;;10.52;7.53;;;;;;;-143.53;100.00;58366.03;2083386;28;20766;-61
2022/05/05 00:52:35;;;;;;;11.38;8.45;;;;;;;-143.53;100.00;58366.03;2083240;28;20203;-61
2022/05/05 00:53:37;;;;;;;12.00;9.13;;;;;;;-143.53;100.00;58366.03;2083414;28;20197;-61
2022/05/05 00:54:39;;;;;;;11.07;8.45;;;;;;;-143.53;100.00;58366.03;2084111;28;20199;-61
2022/05/05 00:55:40;;;;;;;12.40;7.55;;;;;;;-143.53;100.00;58366.03;2079366;28;20965;-61
2022/05/05 00:56:45;;;;;;;10.40;7.70;;;;;;;-143.53;100.00;58366.03;2083677;28;20204;-62
2022/05/05 00:57:46;;;;;;;10.73;7.78;;;;;;;-143.53;100.00;58366.03;2084257;28;20550;-61
2022/05/05 00:58:49;;;;;;;10.27;8.15;;;;;;;-143.53;100.00;58366.03;2083941;28;20192;-61
2022/05/05 00:59:55;;;;;;;11.60;8.65;;;;;;;-143.53;100.00;58366.03;2085826;28;20200;-61
2022/05/05 01:01:04;;;;;;;9.55;7.63;;;;;;;-143.53;100.00;58366.03;2082313;28;20288;-61
2022/05/05 01:02:05;;;;;;;12.18;7.97;;;;;;;-143.53;100.00;58366.03;2080945;28;20197;-61
2022/05/05 01:03:09;;;;;;;10.48;7.82;;;;;;;-143.53;100.00;58366.03;2081720;28;20196;-61
2022/05/05 01:04:11;;;;;;;12.30;9.50;;;;;;;-143.53;100.00;58366.03;2082771;28;20201;-61
2022/05/05 01:05:12;;;;;;;13.77;9.45;;;;;;;-143.53;100.00;58366.03;2084505;28;20249;-62
2022/05/05 01:06:17;;;;;;;12.80;9.20;;;;;;;-143.53;100.00;58366.03;2082164;28;20217;-61
2022/05/05 01:07:21;;;;;;;11.40;9.40;;;;;;;-143.53;100.00;58366.03;2084063;28;20287;-61
2022/05/05 01:08:23;;;;;;;11.85;9.48;;;;;;;-143.53;100.00;58366.03;2083374;28;20259;-61
2022/05/05 01:09:25;;;;;;;10.55;8.52;;;;;;;-143.53;100.00;58366.03;2082216;28;20196;-61
2022/05/05 01:10:27;;;;;;;12.35;8.82;;;;;;;-143.53;100.00;58366.03;2084065;28;20200;-61
2022/05/05 01:11:30;;;;;;;14.18;9.23;;;;;;;-143.53;100.00;58366.03;2082415;28;20346;-61
2022/05/05 01:12:33;;;;;;;12.07;9.10;;;;;;;-143.53;100.00;58366.03;2086827;28;20205;-61
2022/05/05 01:13:44;;;;;;;11.43;8.13;;;;;;;-143.53;100.00;58366.03;2083373;28;20674;-62
2022/05/05 01:14:45;;;;;;;10.75;8.55;;;;;;;-143.53;100.00;58366.03;2084860;28;20205;-61
2022/05/05 01:15:47;;;;;;;9.38;8.05;;;;;;;-143.53;100.00;58366.03;2083998;28;20196;-61
2022/05/05 01:16:48;;;;;;;9.95;7.50;;;;;;;-143.53;100.00;58366.03;2085678;28;20201;-61
2022/05/05 01:17:50;;;;;;;9.20;7.85;;;;;;;-143.53;100.00;58366.03;2082212;28;20338;-61
2022/05/05 01:18:55;;;;;;;9.50;7.53;;;;;;;-143.53;100.00;58366.03;2081110;28;20204;-61
2022/05/05 01:19:56;;;;;;;9.38;7.63;;;;;;;-143.53;100.00;58366.03;2082284;28;20197;-61
2022/05/05 01:20:58;;;;;;;11.70;8.32;;;;;;;-143.53;100.00;58366.03;2081434;28;20221;-62
2022/05/05 01:22:00;;;;;;;10.23;7.43;;;;;;;-143.53;100.00;58366.03;2082299;28;20197;-62
2022/05/05 01:23:01;;;;;;;12.50;7.70;;;;;;;-143.53;100.00;58366.03;2083119;28;20207;-61
2022/05/05 01:24:03;;;;;;;9.88;7.82;;;;;;;-143.53;100.00;58366.03;2083109;28;20197;-61
2022/05/05 01:29:06;;;;;;;9.20;6.78;;;;;;;-143.53;100.00;58366.03;2083435;28;20197;-61
2022/05/05 01:30:08;;;;;;;10.98;7.43;;;;;;;-143.53;100.00;58366.03;2088081;28;20197;-61
2022/05/05 01:31:10;;;;;;;11.93;7.50;;;;;;;-143.53;100.00;58366.03;2083217;28;20584;-61
2022/05/05 01:32:11;;;;;;;7.63;6.60;;;;;;;-143.53;100.00;58366.03;2083692;28;20228;-62
2022/05/05 01:33:14;;;;;;;10.15;7.35;;;;;;;-143.53;100.00;58366.03;2085196;28;20211;-62
2022/05/05 01:34:17;;;;;;;11.00;7.35;;;;;;;-143.53;100.00;58366.03;2086539;28;20203;-61
2022/05/05 01:35:19;;;;;;;12.35;7.38;;;;;;;-143.53;100.00;58366.03;2083153;28;20205;-61
2022/05/05 01:36:20;;;;;;;11.43;8.02;;;;;;;-143.53;100.00;58366.03;2083690;28;20247;-62
2022/05/05 01:37:22;;;;;;;10.80;7.60;;;;;;;-143.53;100.00;58366.03;2084686;28;20235;-61
2022/05/05 01:38:30;;;;;;;15.05;7.53;;;;;;;-143.53;100.00;58366.03;2085997;28;20535;-62
2022/05/05 01:39:31;;;;;;;10.40;7.55;;;;;;;-143.53;100.00;58366.03;2085007;28;20208;-61
2022/05/05 01:40:33;;;;;;;9.15;7.22;;;;;;;-143.53;100.00;58366.03;2085904;28;20623;-61
2022/05/05 01:41:36;;;;;;;10.10;7.45;;;;;;;-143.53;100.00;58366.03;2084568;28;20224;-61
2022/05/05 01:42:38;;;;;;;10.52;8.10;;;;;;;-143.53;100.00;58366.03;2083207;28;20196;-61
2022/05/05 01:43:43;;;;;;;9.27;7.10;;;;;;;-143.53;100.00;58366.03;2084570;28;20197;-61
2022/05/05 01:44:44;;;;;;;8.65;7.20;;;;;;;-143.53;100.00;58366.03;2084252;28;20199;-61
2022/05/05 01:45:46;;;;;;;8.10;6.95;;;;;;;-143.53;100.00;58366.03;2082350;28;20233;-61
2022/05/05 01:49:28;;;;;;;7.57;6.47;;;;;;;-143.53;100.00;58366.03;2062148;28;20210;-61
2022/05/05 01:51:39;;;;;;;8.55;6.80;;;;;;;-143.53;100.00;58366.03;2042172;29;20220;-61
2022/05/05 01:53:03;;;;;;;10.35;6.60;;;;;;;-143.53;100.00;58366.03;2073153;28;20270;-62
2022/05/05 01:54:05;;;;;;;10.13;6.70;;;;;;;-143.53;100.00;58366.03;2087983;28;20193;-61
2022/05/05 01:55:07;;;;;;;8.80;7.10;;;;;;;-143.53;100.00;58366.03;2086555;28;20703;-61
2022/05/05 01:56:11;;;;;;;13.57;8.05;;;;;;;-143.53;100.00;58366.03;2086965;28;20248;-61
2022/05/05 01:57:13;;;;;;;15.82;7.97;;;;;;;-143.53;100.00;58366.03;2088557;28;20214;-61
2022/05/05 01:58:14;;;;;;;9.73;7.25;;;;;;;-143.53;100.00;58366.03;2082665;28;20193;-61
2022/05/05 01:59:16;;;;;;;9.05;7.63;;;;;;;-143.53;100.00;58366.03;2084601;28;20192;-62
2022/05/05 02:00:18;;;;;;;11.55;7.95;;;;;;;-143.53;100.00;58366.03;2087062;28;20196;-62
2022/05/05 02:01:20;;;;;;;10.25;8.25;;;;;;;-143.53;100.00;58366.03;2087062;28;20225;-62
2022/05/05 02:02:21;;;;;;;10.57;7.47;;;;;;;-143.53;100.00;58366.03;2086052;28;20222;-61
2022/05/05 02:03:23;;;;;;;9.52;6.80;;;;;;;-143.53;100.00;58366.03;2084047;28;20196;-61
2022/05/05 02:04:24;;;;;;;10.25;7.18;;;;;;;-143.53;100.00;58366.03;2083942;28;20208;-61
2022/05/05 02:05:26;;;;;;;10.18;6.85;;;;;;;-143.53;100.00;58366.03;2085495;28;20662;-61
2022/05/05 02:06:28;;;;;;;10.55;7.25;;;;;;;-143.53;100.00;58366.03;2084954;28;20295;-61
2022/05/05 02:07:29;;;;;;;7.78;6.70;;;;;;;-143.53;100.00;58366.03;2085589;28;20677;-61
2022/05/05 02:08:30;;;;;;;11.23;7.00;;;;;;;-143.53;100.00;58366.03;2084206;28;20188;-61
2022/05/05 02:09:32;;;;;;;11.93;7.63;;;;;;;-143.53;100.00;58366.03;2086773;28;20196;-62
2022/05/05 02:10:34;;;;;;;10.85;7.07;;;;;;;-143.53;100.00;58366.03;2082564;28;20200;-61
2022/05/05 02:11:41;;;;;;;9.05;6.93;;;;;;;-143.53;100.00;58366.03;2085739;28;20928;-62
2022/05/05 02:12:44;;;;;;;9.02;7.78;;;;;;;-143.53;100.00;58366.03;2083252;28;20205;-61
2022/05/05 02:13:45;;;;;;;9.02;6.90;;;;;;;-143.53;100.00;58366.03;2086385;28;20201;-61
2022/05/05 02:14:47;;;;;;;11.25;6.72;;;;;;;-143.53;100.00;58366.03;2083804;28;20200;-61
2022/05/05 02:15:48;;;;;;;8.32;6.40;;;;;;;-143.53;100.00;58366.03;2085154;28;20197;-61
2022/05/05 02:16:50;;;;;;;7.75;6.38;;;;;;;-143.53;100.00;58366.03;2087800;28;20196;-62
2022/05/05 02:17:52;;;;;;;8.55;6.85;;;;;;;-143.53;100.00;58366.03;2086939;28;20606;-61
2022/05/05 02:18:53;;;;;;;8.45;6.95;;;;;;;-143.53;100.00;58366.03;2086504;28;20205;-61
2022/05/05 02:19:55;;;;;;;10.32;7.05;;;;;;;-143.53;100.00;58366.03;2087001;28;20219;-61
2022/05/05 02:20:57;;;;;;;9.30;6.53;;;;;;;-143.53;100.00;58366.03;2084789;28;20291;-61
2022/05/05 02:21:58;;;;;;;9.52;7.47;;;;;;;-143.53;100.00;58366.03;2085175;28;20673;-62
2022/05/05 02:23:00;;;;;;;9.60;7.65;;;;;;;-143.53;100.00;58366.03;2084686;28;20555;-61
2022/05/05 02:24:01;;;;;;;9.75;6.90;;;;;;;-143.53;100.00;58366.03;2083887;28;20189;-61
2022/05/05 02:25:03;;;;;;;7.95;6.80;;;;;;;-143.53;100.00;58366.03;2082600;28;20679;-62
2022/05/05 02:26:05;;;;;;;10.20;6.95;;;;;;;-143.53;100.00;58366.03;2083468;28;20239;-62
2022/05/05 02:27:08;;;;;;;8.38;6.35;;;;;;;-143.53;100.00;58366.03;2087282;28;20559;-61
2022/05/05 02:28:09;;;;;;;12.60;6.63;;;;;;;-143.53;100.00;58366.03;2087727;28;20660;-62
2022/05/05 02:29:10;;;;;;;8.07;6.90;;;;;;;-143.53;100.00;58366.03;2084890;28;20197;-61
2022/05/05 02:30:12;;;;;;;10.70;7.40;;;;;;;-143.53;100.00;58366.03;2084779;28;20659;-61
2022/05/05 02:31:14;;;;;;;8.40;6.75;;;;;;;-143.53;100.00;58366.03;2082645;28;20220;-62
2022/05/05 02:32:16;;;;;;;7.82;6.28;;;;;;;-143.53;100.00;58366.03;2084262;28;20197;-61
2022/05/05 02:33:18;;;;;;;9.55;7.30;;;;;;;-143.53;100.00;58366.03;2083936;28;20545;-62
2022/05/05 02:34:19;;;;;;;10.57;6.15;;;;;;;-143.53;100.00;58366.03;2087776;28;20196;-61
2022/05/05 02:35:21;;;;;;;8.90;7.25;;;;;;;-143.53;100.00;58366.03;2088394;28;20744;-61
2022/05/05 02:39:02;;;;;;;10.55;6.45;;;;;;;-143.53;100.00;58366.03;2084792;28;20205;-62
2022/05/05 02:40:09;;;;;;;13.95;8.27;;;;;;;-143.53;100.00;58366.03;2084979;28;20254;-61
2022/05/05 02:41:11;;;;;;;8.73;7.13;;;;;;;-143.53;100.00;58366.03;2085263;28;20735;-61
2022/05/05 02:42:13;;;;;;;9.07;7.00;;;;;;;-143.53;100.00;58366.03;2086906;28;20652;-61
2022/05/05 02:43:14;;;;;;;9.10;6.75;;;;;;;-143.53;100.00;58366.03;2087259;28;20204;-61
2022/05/05 02:44:16;;;;;;;9.57;6.95;;;;;;;-143.53;100.00;58366.03;2087360;28;20237;-61
2022/05/05 02:45:17;;;;;;;9.65;7.00;;;;;;;-143.53;100.00;58366.03;2082887;28;20207;-61
2022/05/05 02:46:19;;;;;;;9.40;6.15;;;;;;;-143.53;100.00;58366.03;2083162;28;20723;-61
2022/05/05 02:47:20;;;;;;;10.80;7.60;;;;;;;-143.53;100.00;58366.03;2084230;28;20834;-61
2022/05/05 02:48:22;;;;;;;8.85;6.15;;;;;;;-143.53;100.00;58366.03;2084222;28;20662;-62
2022/05/05 02:49:24;;;;;;;10.60;7.07;;;;;;;-143.53;100.00;58366.03;2084772;28;20200;-61
2022/05/05 02:50:26;;;;;;;8.32;7.43;;;;;;;-143.53;100.00;58366.03;2085442;28;20283;-62
2022/05/05 02:51:28;;;;;;;8.00;7.07;;;;;;;-143.53;100.00;58366.03;2084921;28;20225;-62
2022/05/05 02:52:29;;;;;;;8.10;6.88;;;;;;;-143.53;100.00;58366.03;2085977;28;20212;-61
2022/05/05 02:54:51;;;;;;;9.02;6.72;;;;;;;-143.53;100.00;58366.03;2084035;28;20197;-62
2022/05/05 02:55:52;;;;;;;11.63;7.78;;;;;;;-143.53;100.00;58366.03;2085894;28;20198;-61
2022/05/05 02:56:54;;;;;;;12.18;8.05;;;;;;;-143.53;100.00;58366.03;2083040;28;20200;-61
2022/05/05 02:57:55;;;;;;;8.85;7.38;;;;;;;-143.53;100.00;58366.03;2084497;28;20228;-62
2022/05/05 02:58:57;;;;;;;8.02;6.68;;;;;;;-143.53;100.00;58366.03;2085143;28;20204;-61
2022/05/05 02:59:58;;;;;;;9.60;7.25;;;;;;;-143.53;100.00;58366.03;2084109;28;20201;-61
2022/05/05 03:01:00;;;;;;;7.85;6.97;;;;;;;-143.53;100.00;58366.03;2083939;28;20212;-61
2022/05/05 03:02:02;;;;;;;10.88;6.95;;;;;;;-143.53;100.00;58366.03;2083514;28;20720;-61
2022/05/05 03:03:04;;;;;;;9.85;6.75;;;;;;;-143.53;100.00;58366.03;2084021;28;20196;-61
2022/05/05 03:04:06;;;;;;;11.02;6.60;;;;;;;-143.53;100.00;58366.03;2084880;28;20228;-61
2022/05/05 03:05:09;;;;;;;10.15;7.15;;;;;;;-143.53;100.00;58366.03;2085657;28;20212;-61
2022/05/05 03:06:10;;;;;;;8.38;6.85;;;;;;;-143.53;100.00;58366.03;2083557;28;20220;-61
2022/05/05 03:07:12;;;;;;;9.02;6.85;;;;;;;-143.53;100.00;58366.03;2087012;28;20204;-61
2022/05/05 03:08:13;;;;;;;11.23;7.78;;;;;;;-143.53;100.00;58366.03;2081629;28;20201;-61
2022/05/05 03:09:15;;;;;;;8.52;6.93;;;;;;;-143.53;100.00;58366.03;2085506;28;20193;-62
2022/05/05 03:10:16;;;;;;;10.10;6.82;;;;;;;-143.53;100.00;58366.03;2083187;28;20223;-61
2022/05/05 03:11:18;;;;;;;18.65;8.00;;;;;;;-143.53;100.00;58366.03;2082071;28;20235;-61
2022/05/05 03:12:19;;;;;;;10.45;7.57;;;;;;;-143.53;100.00;58366.03;2084711;28;20201;-62
2022/05/05 03:13:27;;;;;;;10.55;8.07;;;;;;;-143.53;100.00;58366.03;2083780;28;20212;-61
2022/05/05 03:14:28;;;;;;;12.82;7.10;;;;;;;-143.53;100.00;58366.03;2084824;28;20197;-61
2022/05/05 03:15:30;;;;;;;9.10;7.00;;;;;;;-143.53;100.00;58366.03;2084126;28;20552;-61
2022/05/05 03:16:31;;;;;;;10.50;7.35;;;;;;;-143.53;100.00;58366.03;2084737;28;20768;-61
2022/05/05 03:17:34;;;;;;;8.75;6.80;;;;;;;-143.53;100.00;58366.03;2085463;28;20667;-61
2022/05/05 03:18:35;;;;;;;8.70;6.93;;;;;;;-143.53;100.00;58366.03;2084039;28;20726;-61
2022/05/05 03:19:37;;;;;;;12.68;8.88;;;;;;;-143.53;100.00;58366.03;2083214;28;20200;-61
2022/05/05 03:20:38;;;;;;;12.75;11.43;;;;;;;-143.53;100.00;58366.03;2082799;28;20189;-61
2022/05/05 03:21:41;;;;;;;13.45;11.30;;;;;;;-143.53;100.00;58366.03;2082811;28;20196;-61
2022/05/05 03:22:42;;;;;;;15.65;12.25;;;;;;;-143.53;100.00;58366.03;2083217;28;20193;-61
2022/05/05 03:23:44;;;;;;;13.15;11.05;;;;;;;-143.53;100.00;58366.03;2082081;28;20211;-61
2022/05/05 03:24:45;;;;;;;19.35;10.50;;;;;;;-143.53;100.00;58366.03;2083574;28;20196;-62
2022/05/05 03:25:46;;;;;;;12.43;10.93;;;;;;;-143.53;100.00;58366.03;2084034;28;20197;-61
2022/05/05 03:26:48;;;;;;;12.93;10.60;;;;;;;-143.53;100.00;58366.03;2084715;28;20208;-61
2022/05/05 03:27:49;;;;;;;12.20;9.93;;;;;;;-143.53;100.00;58366.03;2084393;28;20208;-61
2022/05/05 03:28:51;;;;;;;10.90;9.13;;;;;;;-143.53;100.00;58366.03;2083820;28;20193;-61
2022/05/05 03:29:52;;;;;;;10.23;8.80;;;;;;;-143.53;100.00;58366.03;2084360;28;20245;-61
2022/05/05 03:30:54;;;;;;;11.68;9.50;;;;;;;-143.53;100.00;58366.03;2083089;28;20197;-61
2022/05/05 03:31:56;;;;;;;10.70;9.15;;;;;;;-143.53;100.00;58366.03;2086182;28;20192;-61
2022/05/05 03:32:57;;;;;;;12.63;11.00;;;;;;;-143.53;100.00;58366.03;2085046;28;20307;-62
2022/05/05 03:33:59;;;;;;;15.10;9.75;;;;;;;-143.53;100.00;58366.03;2083346;28;20209;-61
2022/05/05 03:35:01;;;;;;;11.27;10.00;;;;;;;-143.53;100.00;58366.03;2083140;28;20197;-61
2022/05/05 03:36:03;;;;;;;11.00;9.85;;;;;;;-143.53;100.00;58366.03;2082801;28;20229;-61
2022/05/05 03:37:05;;;;;;;10.23;9.15;;;;;;;-143.53;100.00;58366.03;2086163;28;20687;-61
2022/05/05 03:38:07;;;;;;;12.15;9.98;;;;;;;-143.53;100.00;58366.03;2084084;28;20197;-61
2022/05/05 03:39:08;;;;;;;11.90;9.82;;;;;;;-143.53;100.00;58366.03;2084136;28;20197;-61
2022/05/05 03:40:10;;;;;;;18.85;9.00;;;;;;;-143.53;100.00;58366.03;2087117;28;20200;-61
2022/05/05 03:41:11;;;;;;;11.77;9.20;;;;;;;-143.53;100.00;58366.03;2085830;28;20224;-61
2022/05/05 03:42:13;;;;;;;10.80;8.30;;;;;;;-143.53;100.00;58366.03;2082185;28;20200;-61
2022/05/05 03:43:15;;;;;;;9.73;8.73;;;;;;;-143.53;100.00;58366.03;2083809;28;20413;-62
2022/05/05 03:44:16;;;;;;;9.50;8.20;;;;;;;-143.53;100.00;58366.03;2084021;28;20201;-61
2022/05/05 03:45:18;;;;;;;12.80;8.10;;;;;;;-143.53;100.00;58366.03;2083069;28;20204;-61
2022/05/05 03:46:19;;;;;;;8.98;7.72;;;;;;;-143.53;100.00;58366.03;2083647;28;20738;-61
2022/05/05 03:47:21;;;;;;;9.68;7.97;;;;;;;-143.53;100.00;58366.03;2084596;28;20197;-62
2022/05/05 03:48:22;;;;;;;9.18;7.57;;;;;;;-143.53;100.00;58366.03;2084391;28;20204;-61
2022/05/05 03:49:24;;;;;;;11.50;8.07;;;;;;;-143.53;100.00;58366.03;2079817;28;20204;-62
2022/05/05 03:50:25;;;;;;;9.73;7.63;;;;;;;-143.53;100.00;58366.03;2079640;28;20209;-62
2022/05/05 03:51:27;;;;;;;15.48;7.10;;;;;;;-143.53;100.00;58366.03;2083964;28;20216;-62
2022/05/05 03:52:28;;;;;;;9.70;7.97;;;;;;;-143.53;100.00;58366.03;2083111;28;20189;-61
2022/05/05 03:53:30;;;;;;;10.15;7.47;;;;;;;-143.53;100.00;58366.03;2085345;28;20215;-61
2022/05/05 03:54:32;;;;;;;11.30;8.50;;;;;;;-143.53;100.00;58366.03;2082918;28;20188;-61
2022/05/05 03:55:33;;;;;;;22.23;7.35;;;;;;;-143.53;100.00;58366.03;2084847;28;20198;-62
2022/05/05 03:56:35;;;;;;;10.80;8.05;;;;;;;-143.53;100.00;58366.03;2085019;28;20583;-61
2022/05/05 03:57:36;;;;;;;8.95;7.05;;;;;;;-143.53;100.00;58366.03;2084875;28;20197;-62
2022/05/05 03:58:38;;;;;;;11.65;8.02;;;;;;;-143.53;100.00;58366.03;2082450;28;20215;-61
2022/05/05 03:59:39;;;;;;;11.55;7.55;;;;;;;-143.53;100.00;58366.03;2084570;28;20200;-61
2022/05/05 04:00:41;;;;;;;9.23;7.45;;;;;;;-143.53;100.00;58366.03;2083517;28;20193;-62
2022/05/05 04:01:42;;;;;;;10.07;8.13;;;;;;;-143.53;100.00;58366.03;2086963;28;20672;-62
2022/05/05 04:03:30;;;;;;;9.52;7.07;;;;;;;-143.53;100.00;58366.03;2085097;28;20279;-60
2022/05/05 04:04:05;;;;;;;13.07;8.45;;;;;;;-143.53;100.00;58366.03;2083611;28;20204;-60
2022/05/05 04:05:07;;;;;;;9.38;7.90;;;;;;;-143.53;100.00;58366.03;2087149;28;20200;-60
2022/05/05 04:06:10;;;;;;;13.50;7.55;;;;;;;-143.53;100.00;58366.03;2082786;28;20220;-59
2022/05/05 04:07:11;;;;;;;10.50;7.70;;;;;;;-143.53;100.00;58366.03;2083010;28;20204;-60
2022/05/05 04:08:13;;;;;;;10.65;6.97;;;;;;;-143.53;100.00;58366.03;2082276;28;20663;-60
2022/05/05 04:09:14;;;;;;;8.50;7.15;;;;;;;-143.53;100.00;58366.03;2085111;28;20926;-59
2022/05/05 04:10:16;;;;;;;8.57;7.30;;;;;;;-143.53;100.00;58366.03;2083041;28;20196;-60
2022/05/05 04:11:17;;;;;;;7.85;7.00;;;;;;;-143.53;100.00;58366.03;2083348;28;20591;-60
2022/05/05 04:12:20;;;;;;;10.60;7.70;;;;;;;-143.53;100.00;58366.03;2083464;28;20197;-60
2022/05/05 04:13:22;;;;;;;10.30;7.32;;;;;;;-143.53;100.00;58366.03;2082287;28;20250;-60
2022/05/05 04:14:24;;;;;;;8.75;6.93;;;;;;;-143.53;100.00;58366.03;2083899;28;20201;-60
2022/05/05 04:15:26;;;;;;;8.00;6.88;;;;;;;-143.53;100.00;58366.03;2083275;28;20644;-60
2022/05/05 04:16:27;;;;;;;8.43;7.30;;;;;;;-143.53;100.00;58366.03;2081915;28;20632;-61
2022/05/05 04:17:29;;;;;;;9.48;7.38;;;;;;;-143.53;100.00;58366.03;2081851;28;20323;-60
2022/05/05 04:18:32;;;;;;;9.45;6.78;;;;;;;-143.53;100.00;58366.03;2074949;28;20289;-60
2022/05/05 04:19:33;;;;;;;8.45;7.00;;;;;;;-143.53;100.00;58366.03;2078835;28;20201;-60
2022/05/05 04:20:35;;;;;;;10.98;7.60;;;;;;;-143.53;100.00;58366.03;2081806;28;20212;-60
2022/05/05 04:21:36;;;;;;;8.35;7.18;;;;;;;-143.53;100.00;58366.03;2071079;28;20319;-60
2022/05/05 04:22:38;;;;;;;15.85;7.25;;;;;;;-143.53;100.00;58366.03;2083360;28;20200;-60
2022/05/05 04:23:40;;;;;;;9.23;7.55;;;;;;;-143.53;100.00;58366.03;2083461;28;20194;-65
2022/05/05 04:24:43;;;;;;;13.70;8.45;;;;;;;-143.53;100.00;58366.03;2082602;28;20549;-66
2022/05/05 04:25:46;;;;;;;12.30;8.73;;;;;;;-143.53;100.00;58366.03;2082081;28;20208;-66
2022/05/05 04:26:49;;;;;;;24.80;9.20;;;;;;;-143.53;100.00;58366.03;2083455;28;20199;-66
2022/05/05 04:27:51;;;;;;;11.55;8.15;;;;;;;-143.53;100.00;58366.03;2080336;28;20212;-66
2022/05/05 04:28:53;;;;;;;11.85;8.30;;;;;;;-143.53;100.00;58366.03;2083074;28;20192;-66
2022/05/05 04:29:54;;;;;;;10.98;7.75;;;;;;;-143.53;100.00;58366.03;2084134;28;20196;-66
2022/05/05 04:30:57;;;;;;;8.60;6.88;;;;;;;-143.53;100.00;58366.03;2081872;28;20229;-66
2022/05/05 04:31:58;;;;;;;7.53;6.28;;;;;;;-143.53;100.00;58366.03;2083305;28;20197;-66
2022/05/05 04:33:00;;;;;;;8.57;6.35;;;;;;;-143.53;100.00;58366.03;2083044;28;20711;-66
2022/05/05 04:34:03;;;;;;;8.95;6.38;;;;;;;-143.53;100.00;58366.03;2084301;28;20583;-66
2022/05/05 04:35:05;;;;;;;8.88;7.20;;;;;;;-143.53;100.00;58366.03;2084887;28;20596;-66
2022/05/05 04:36:08;;;;;;;7.43;6.40;;;;;;;-143.53;100.00;58366.03;2085061;28;20228;-66
2022/05/05 04:37:09;;;;;;;8.20;6.45;;;;;;;-143.53;100.00;58366.03;2082854;28;20641;-66
2022/05/05 04:38:10;;;;;;;8.90;7.45;;;;;;;-143.53;100.00;58366.03;2084037;28;20625;-66
2022/05/05 04:39:12;;;;;;;15.07;6.70;;;;;;;-143.53;100.00;58366.03;2083991;28;20209;-66
2022/05/05 04:40:13;;;;;;;12.45;7.10;;;;;;;-143.53;100.00;58366.03;2085702;28;20196;-61
2022/05/05 04:41:15;;;;;;;12.10;6.85;;;;;;;-143.53;100.00;58366.03;2078764;28;20272;-66
2022/05/05 04:42:17;;;;;;;12.55;6.82;;;;;;;-143.53;100.00;58366.03;2077168;28;20295;-67
2022/05/05 04:43:18;;;;;;;9.63;7.90;;;;;;;-143.53;100.00;58366.03;2082716;28;20200;-66
2022/05/05 04:44:20;;;;;;;13.43;7.15;;;;;;;-143.53;100.00;58366.03;2084594;28;20295;-67
2022/05/05 04:45:21;;;;;;;8.30;6.50;;;;;;;-143.53;100.00;58366.03;2084109;28;20196;-66
2022/05/05 04:46:23;;;;;;;7.57;6.53;;;;;;;-143.53;100.00;58366.03;2083597;28;20919;-67
2022/05/05 04:47:24;;;;;;;14.55;8.95;;;;;;;-143.53;100.00;58366.03;2083846;28;20242;-66
2022/05/05 04:48:26;;;;;;;9.40;7.45;;;;;;;-143.53;100.00;58366.03;2083879;28;20235;-67
2022/05/05 04:49:27;;;;;;;10.10;8.07;;;;;;;-143.53;100.00;58366.03;2082247;28;20193;-67
2022/05/05 04:50:29;;;;;;;8.20;6.72;;;;;;;-143.53;100.00;58366.03;2082670;28;20700;-67
2022/05/05 04:51:30;;;;;;;11.02;7.85;;;;;;;-143.53;100.00;58366.03;2083186;28;20242;-66
2022/05/05 04:52:32;;;;;;;10.88;8.32;;;;;;;-143.53;100.00;58366.03;2084184;28;20205;-66
2022/05/05 04:53:34;;;;;;;12.02;7.85;;;;;;;-143.53;100.00;58366.03;2083865;28;20201;-67
2022/05/05 04:54:35;;;;;;;9.43;7.75;;;;;;;-143.53;100.00;58366.03;2085877;28;20764;-66
2022/05/05 04:55:37;;;;;;;10.00;6.97;;;;;;;-143.53;100.00;58366.03;2084897;28;20560;-67
2022/05/05 04:56:38;;;;;;;9.77;7.03;;;;;;;-143.53;100.00;58366.03;2084169;28;20211;-66